GMFO Airport Information

Runway Information
Runway 06 Length 9843 ft width 148 ft
Elevation 1535 ft Threshold 0 ft Heading 58
Runway 24 Length 9843 ft Width 148 ft
Elevation 1493 ft Threshold 0 ft Heading 238
Airport Frequencies
Type APP Name OUJDA APP Frequency 136.6 MHZ
Type ATIS Name ATIS Frequency 121.6 MHZ
Type TWR Name OUJDA TWR Frequency 118.2 MHZ
Airport Navaids
Type NDB Name Oujda Frequency 371 KHZ
Type VOR-DME Name Oujda Frequency 117500 KHZ
Airport Weather Information & NOTAM
ADDS - METARS form results

(0831 UTC 18 July 2018)
 
METAR text: GMFO 180800Z 34004KT 300V050 CAVOK 25/16 Q1017 NOSIG
Conditions at: GMFO (OUJDA/ANGADS , MA) observed 0800 UTC 18 July 2018
Temperature: 25.0°C (77°F)
Dewpoint: 16.0°C (61°F) [RH = 57%]
Pressure (altimeter): 30.03 inches Hg (1017.0 mb)
Winds: from the NNW (340 degrees) at 5 MPH (4 knots; 2.1 m/s)
Visibility: 6 or more miles (10+ km)
Ceiling: ceiling and visibility are OK
Clouds: unknown
Weather: no significant weather observed at this time